sensor_id;sensor_type;location;lat;lon;timestamp;P1;durP1;ratioP1;P2;durP2;ratioP2
84293;SDS011;74463;51.182;3.210;2024-02-26T00:00:07;10.77;;;3.80;;
84293;SDS011;74463;51.182;3.210;2024-02-26T00:02:36;8.20;;;3.40;;
84293;SDS011;74463;51.182;3.210;2024-02-26T00:05:05;5.63;;;3.20;;
84293;SDS011;74463;51.182;3.210;2024-02-26T00:07:33;7.47;;;3.50;;
84293;SDS011;74463;51.182;3.210;2024-02-26T00:10:00;5.15;;;3.05;;
84293;SDS011;74463;51.182;3.210;2024-02-26T00:12:27;6.40;;;3.22;;
84293;SDS011;74463;51.182;3.210;2024-02-26T00:14:54;5.18;;;3.50;;
84293;SDS011;74463;51.182;3.210;2024-02-26T00:17:23;5.85;;;3.20;;
84293;SDS011;74463;51.182;3.210;2024-02-26T00:19:52;7.53;;;3.33;;
84293;SDS011;74463;51.182;3.210;2024-02-26T00:22:19;7.07;;;3.25;;
84293;SDS011;74463;51.182;3.210;2024-02-26T00:24:47;4.47;;;3.03;;
84293;SDS011;74463;51.182;3.210;2024-02-26T00:27:14;4.50;;;3.03;;
84293;SDS011;74463;51.182;3.210;2024-02-26T00:29:41;8.18;;;3.60;;
84293;SDS011;74463;51.182;3.210;2024-02-26T00:32:07;7.70;;;3.28;;
84293;SDS011;74463;51.182;3.210;2024-02-26T00:34:34;6.93;;;3.67;;
84293;SDS011;74463;51.182;3.210;2024-02-26T00:37:03;6.03;;;3.13;;
84293;SDS011;74463;51.182;3.210;2024-02-26T00:41:57;5.95;;;3.50;;
84293;SDS011;74463;51.182;3.210;2024-02-26T00:44:24;8.60;;;3.53;;
84293;SDS011;74463;51.182;3.210;2024-02-26T00:46:51;6.05;;;3.35;;
84293;SDS011;74463;51.182;3.210;2024-02-26T00:49:18;7.90;;;4.25;;
84293;SDS011;74463;51.182;3.210;2024-02-26T00:51:45;5.53;;;3.63;;
84293;SDS011;74463;51.182;3.210;2024-02-26T00:54:13;6.00;;;4.22;;
84293;SDS011;74463;51.182;3.210;2024-02-26T00:56:40;8.35;;;4.15;;
84293;SDS011;74463;51.182;3.210;2024-02-26T00:59:07;8.23;;;4.22;;
84293;SDS011;74463;51.182;3.210;2024-02-26T01:01:34;6.93;;;3.85;;
84293;SDS011;74463;51.182;3.210;2024-02-26T01:04:01;6.88;;;4.68;;
84293;SDS011;74463;51.182;3.210;2024-02-26T01:06:28;8.10;;;3.97;;
84293;SDS011;74463;51.182;3.210;2024-02-26T01:08:55;14.93;;;4.32;;
84293;SDS011;74463;51.182;3.210;2024-02-26T01:11:24;7.72;;;4.40;;
84293;SDS011;74463;51.182;3.210;2024-02-26T01:13:51;6.82;;;4.30;;
84293;SDS011;74463;51.182;3.210;2024-02-26T01:16:21;6.55;;;3.83;;
84293;SDS011;74463;51.182;3.210;2024-02-26T01:18:48;6.63;;;4.10;;
84293;SDS011;74463;51.182;3.210;2024-02-26T01:21:15;8.30;;;4.43;;
84293;SDS011;74463;51.182;3.210;2024-02-26T01:23:42;6.40;;;4.50;;
84293;SDS011;74463;51.182;3.210;2024-02-26T01:26:09;5.88;;;3.83;;
84293;SDS011;74463;51.182;3.210;2024-02-26T01:28:37;6.32;;;4.30;;
84293;SDS011;74463;51.182;3.210;2024-02-26T01:31:04;7.40;;;4.15;;
84293;SDS011;74463;51.182;3.210;2024-02-26T01:33:33;7.65;;;4.32;;
84293;SDS011;74463;51.182;3.210;2024-02-26T01:36:00;6.68;;;4.15;;
84293;SDS011;74463;51.182;3.210;2024-02-26T01:38:27;9.13;;;4.30;;
84293;SDS011;74463;51.182;3.210;2024-02-26T01:40:54;7.07;;;4.40;;
84293;SDS011;74463;51.182;3.210;2024-02-26T01:43:21;9.63;;;4.28;;
84293;SDS011;74463;51.182;3.210;2024-02-26T01:45:50;7.30;;;4.63;;
84293;SDS011;74463;51.182;3.210;2024-02-26T01:48:16;7.22;;;4.22;;
84293;SDS011;74463;51.182;3.210;2024-02-26T01:50:44;8.32;;;4.70;;
84293;SDS011;74463;51.182;3.210;2024-02-26T01:53:11;7.30;;;4.10;;
84293;SDS011;74463;51.182;3.210;2024-02-26T01:55:39;8.00;;;4.22;;
84293;SDS011;74463;51.182;3.210;2024-02-26T01:58:06;9.70;;;5.25;;
84293;SDS011;74463;51.182;3.210;2024-02-26T02:00:33;6.75;;;4.35;;
84293;SDS011;74463;51.182;3.210;2024-02-26T02:03:02;8.55;;;4.45;;
84293;SDS011;74463;51.182;3.210;2024-02-26T02:05:30;5.80;;;3.88;;
84293;SDS011;74463;51.182;3.210;2024-02-26T02:07:59;6.90;;;4.55;;
84293;SDS011;74463;51.182;3.210;2024-02-26T02:10:28;7.97;;;4.50;;
84293;SDS011;74463;51.182;3.210;2024-02-26T02:12:55;8.77;;;4.88;;
84293;SDS011;74463;51.182;3.210;2024-02-26T02:15:22;9.32;;;4.80;;
84293;SDS011;74463;51.182;3.210;2024-02-26T02:17:49;7.70;;;4.32;;
84293;SDS011;74463;51.182;3.210;2024-02-26T02:20:18;8.77;;;5.20;;
84293;SDS011;74463;51.182;3.210;2024-02-26T02:22:47;9.88;;;4.93;;
84293;SDS011;74463;51.182;3.210;2024-02-26T02:25:14;7.20;;;4.53;;
84293;SDS011;74463;51.182;3.210;2024-02-26T02:27:41;9.25;;;4.82;;
84293;SDS011;74463;51.182;3.210;2024-02-26T02:30:09;8.30;;;5.10;;
84293;SDS011;74463;51.182;3.210;2024-02-26T02:32:37;7.55;;;4.57;;
84293;SDS011;74463;51.182;3.210;2024-02-26T02:35:06;8.90;;;5.00;;
84293;SDS011;74463;51.182;3.210;2024-02-26T02:37:34;8.32;;;4.88;;
84293;SDS011;74463;51.182;3.210;2024-02-26T02:40:04;7.70;;;4.95;;
84293;SDS011;74463;51.182;3.210;2024-02-26T02:42:31;7.07;;;5.18;;
84293;SDS011;74463;51.182;3.210;2024-02-26T02:44:58;8.77;;;4.93;;
84293;SDS011;74463;51.182;3.210;2024-02-26T02:47:25;8.98;;;5.40;;
84293;SDS011;74463;51.182;3.210;2024-02-26T02:49:52;9.63;;;5.35;;
84293;SDS011;74463;51.182;3.210;2024-02-26T02:52:19;8.48;;;5.32;;
84293;SDS011;74463;51.182;3.210;2024-02-26T02:54:46;8.20;;;5.22;;
84293;SDS011;74463;51.182;3.210;2024-02-26T02:57:14;8.30;;;4.90;;
84293;SDS011;74463;51.182;3.210;2024-02-26T02:59:41;7.35;;;4.65;;
84293;SDS011;74463;51.182;3.210;2024-02-26T03:02:08;7.63;;;4.53;;
84293;SDS011;74463;51.182;3.210;2024-02-26T03:04:35;6.90;;;5.15;;
84293;SDS011;74463;51.182;3.210;2024-02-26T03:07:02;8.88;;;5.22;;
84293;SDS011;74463;51.182;3.210;2024-02-26T03:09:29;10.70;;;5.60;;
84293;SDS011;74463;51.182;3.210;2024-02-26T03:11:56;9.93;;;5.40;;
84293;SDS011;74463;51.182;3.210;2024-02-26T03:14:24;12.02;;;5.55;;
84293;SDS011;74463;51.182;3.210;2024-02-26T03:16:53;13.15;;;6.50;;
84293;SDS011;74463;51.182;3.210;2024-02-26T03:21:47;13.82;;;6.78;;
84293;SDS011;74463;51.182;3.210;2024-02-26T03:24:14;14.38;;;7.50;;
84293;SDS011;74463;51.182;3.210;2024-02-26T03:26:41;13.75;;;7.53;;
84293;SDS011;74463;51.182;3.210;2024-02-26T03:29:08;12.27;;;7.18;;
84293;SDS011;74463;51.182;3.210;2024-02-26T03:31:36;16.15;;;7.45;;
84293;SDS011;74463;51.182;3.210;2024-02-26T03:34:03;10.32;;;7.55;;
84293;SDS011;74463;51.182;3.210;2024-02-26T03:36:30;11.68;;;7.43;;
84293;SDS011;74463;51.182;3.210;2024-02-26T03:38:57;9.20;;;6.95;;
84293;SDS011;74463;51.182;3.210;2024-02-26T03:41:24;10.80;;;6.22;;
84293;SDS011;74463;51.182;3.210;2024-02-26T03:43:51;10.00;;;6.30;;
84293;SDS011;74463;51.182;3.210;2024-02-26T03:46:18;8.68;;;6.07;;
84293;SDS011;74463;51.182;3.210;2024-02-26T03:48:47;10.40;;;6.20;;
84293;SDS011;74463;51.182;3.210;2024-02-26T03:51:14;9.38;;;5.70;;
84293;SDS011;74463;51.182;3.210;2024-02-26T03:53:40;11.07;;;6.55;;
84293;SDS011;74463;51.182;3.210;2024-02-26T03:56:07;11.63;;;6.05;;
84293;SDS011;74463;51.182;3.210;2024-02-26T03:58:37;8.85;;;5.72;;
84293;SDS011;74463;51.182;3.210;2024-02-26T04:01:04;9.57;;;5.22;;
84293;SDS011;74463;51.182;3.210;2024-02-26T04:03:33;8.50;;;5.85;;
84293;SDS011;74463;51.182;3.210;2024-02-26T04:06:02;7.13;;;5.05;;
84293;SDS011;74463;51.182;3.210;2024-02-26T04:08:29;7.55;;;5.00;;
84293;SDS011;74463;51.182;3.210;2024-02-26T04:10:56;7.95;;;4.90;;
84293;SDS011;74463;51.182;3.210;2024-02-26T04:13:23;8.75;;;4.30;;
84293;SDS011;74463;51.182;3.210;2024-02-26T04:15:50;8.57;;;4.80;;
84293;SDS011;74463;51.182;3.210;2024-02-26T04:18:16;7.40;;;4.72;;
84293;SDS011;74463;51.182;3.210;2024-02-26T04:20:43;9.80;;;5.32;;
84293;SDS011;74463;51.182;3.210;2024-02-26T04:23:12;12.57;;;5.53;;
84293;SDS011;74463;51.182;3.210;2024-02-26T04:25:39;7.63;;;4.68;;
84293;SDS011;74463;51.182;3.210;2024-02-26T04:28:05;7.82;;;5.00;;
84293;SDS011;74463;51.182;3.210;2024-02-26T04:30:32;9.10;;;4.53;;
84293;SDS011;74463;51.182;3.210;2024-02-26T04:32:59;9.95;;;5.15;;
84293;SDS011;74463;51.182;3.210;2024-02-26T04:35:26;8.68;;;5.55;;
84293;SDS011;74463;51.182;3.210;2024-02-26T04:37:53;8.45;;;5.43;;
84293;SDS011;74463;51.182;3.210;2024-02-26T04:40:22;6.38;;;4.68;;
84293;SDS011;74463;51.182;3.210;2024-02-26T04:42:49;5.95;;;4.20;;
84293;SDS011;74463;51.182;3.210;2024-02-26T04:45:16;6.38;;;3.80;;
84293;SDS011;74463;51.182;3.210;2024-02-26T04:47:42;7.82;;;4.43;;
84293;SDS011;74463;51.182;3.210;2024-02-26T04:50:09;6.78;;;3.90;;
84293;SDS011;74463;51.182;3.210;2024-02-26T04:52:36;4.18;;;3.25;;
84293;SDS011;74463;51.182;3.210;2024-02-26T04:55:03;7.10;;;4.13;;
84293;SDS011;74463;51.182;3.210;2024-02-26T04:57:32;5.40;;;3.92;;
84293;SDS011;74463;51.182;3.210;2024-02-26T04:59:59;4.88;;;3.20;;
84293;SDS011;74463;51.182;3.210;2024-02-26T05:02:26;5.75;;;3.80;;
84293;SDS011;74463;51.182;3.210;2024-02-26T05:07:22;4.88;;;3.22;;
84293;SDS011;74463;51.182;3.210;2024-02-26T05:09:48;6.28;;;3.80;;
84293;SDS011;74463;51.182;3.210;2024-02-26T05:12:15;4.80;;;3.50;;
84293;SDS011;74463;51.182;3.210;2024-02-26T05:14:44;9.77;;;4.25;;
84293;SDS011;74463;51.182;3.210;2024-02-26T05:17:11;5.75;;;3.80;;
84293;SDS011;74463;51.182;3.210;2024-02-26T05:19:38;7.57;;;3.67;;
84293;SDS011;74463;51.182;3.210;2024-02-26T05:22:05;6.80;;;3.63;;
84293;SDS011;74463;51.182;3.210;2024-02-26T05:24:32;7.57;;;3.90;;
84293;SDS011;74463;51.182;3.210;2024-02-26T05:27:00;7.80;;;4.50;;
84293;SDS011;74463;51.182;3.210;2024-02-26T05:29:27;8.70;;;4.23;;
84293;SDS011;74463;51.182;3.210;2024-02-26T05:31:55;7.38;;;4.10;;
84293;SDS011;74463;51.182;3.210;2024-02-26T05:34:22;6.82;;;4.55;;
84293;SDS011;74463;51.182;3.210;2024-02-26T05:36:49;8.25;;;4.95;;
84293;SDS011;74463;51.182;3.210;2024-02-26T05:39:16;7.80;;;5.15;;
84293;SDS011;74463;51.182;3.210;2024-02-26T05:41:42;9.27;;;5.53;;
84293;SDS011;74463;51.182;3.210;2024-02-26T05:44:10;8.48;;;5.72;;
84293;SDS011;74463;51.182;3.210;2024-02-26T05:46:37;9.52;;;6.07;;
84293;SDS011;74463;51.182;3.210;2024-02-26T05:49:06;8.57;;;5.80;;
84293;SDS011;74463;51.182;3.210;2024-02-26T05:51:33;6.28;;;4.50;;
84293;SDS011;74463;51.182;3.210;2024-02-26T05:54:00;8.98;;;5.50;;
84293;SDS011;74463;51.182;3.210;2024-02-26T05:56:27;9.90;;;5.57;;
84293;SDS011;74463;51.182;3.210;2024-02-26T05:58:54;8.52;;;5.50;;
84293;SDS011;74463;51.182;3.210;2024-02-26T06:01:21;8.63;;;5.40;;
84293;SDS011;74463;51.182;3.210;2024-02-26T06:03:48;10.50;;;5.57;;
84293;SDS011;74463;51.182;3.210;2024-02-26T06:06:16;9.23;;;5.25;;
84293;SDS011;74463;51.182;3.210;2024-02-26T06:08:43;9.75;;;5.47;;
84293;SDS011;74463;51.182;3.210;2024-02-26T06:11:10;12.20;;;6.38;;
84293;SDS011;74463;51.182;3.210;2024-02-26T06:13:37;10.90;;;6.28;;
84293;SDS011;74463;51.182;3.210;2024-02-26T06:16:05;12.13;;;6.15;;
84293;SDS011;74463;51.182;3.210;2024-02-26T06:18:33;8.80;;;6.10;;
84293;SDS011;74463;51.182;3.210;2024-02-26T06:21:00;12.32;;;6.75;;
84293;SDS011;74463;51.182;3.210;2024-02-26T06:23:29;11.25;;;6.25;;
84293;SDS011;74463;51.182;3.210;2024-02-26T06:25:56;13.50;;;6.60;;
84293;SDS011;74463;51.182;3.210;2024-02-26T06:28:23;9.43;;;6.03;;
84293;SDS011;74463;51.182;3.210;2024-02-26T06:30:50;9.02;;;5.45;;
84293;SDS011;74463;51.182;3.210;2024-02-26T06:33:17;14.65;;;6.30;;
84293;SDS011;74463;51.182;3.210;2024-02-26T06:35:44;11.82;;;6.07;;
84293;SDS011;74463;51.182;3.210;2024-02-26T06:38:11;9.82;;;5.93;;
84293;SDS011;74463;51.182;3.210;2024-02-26T06:40:40;14.77;;;6.78;;
84293;SDS011;74463;51.182;3.210;2024-02-26T06:43:07;9.48;;;6.05;;
84293;SDS011;74463;51.182;3.210;2024-02-26T06:45:34;10.00;;;6.10;;
84293;SDS011;74463;51.182;3.210;2024-02-26T06:48:01;10.35;;;5.90;;
84293;SDS011;74463;51.182;3.210;2024-02-26T06:50:28;8.95;;;5.68;;
84293;SDS011;74463;51.182;3.210;2024-02-26T06:52:55;7.78;;;5.18;;
84293;SDS011;74463;51.182;3.210;2024-02-26T06:55:22;8.50;;;5.00;;
84293;SDS011;74463;51.182;3.210;2024-02-26T06:57:50;8.23;;;5.50;;
84293;SDS011;74463;51.182;3.210;2024-02-26T07:00:17;9.13;;;4.78;;
84293;SDS011;74463;51.182;3.210;2024-02-26T07:02:44;8.38;;;4.60;;
84293;SDS011;74463;51.182;3.210;2024-02-26T07:05:11;6.85;;;4.25;;
84293;SDS011;74463;51.182;3.210;2024-02-26T07:07:38;9.13;;;4.40;;
84293;SDS011;74463;51.182;3.210;2024-02-26T07:10:05;6.07;;;4.50;;
84293;SDS011;74463;51.182;3.210;2024-02-26T07:12:33;10.30;;;3.97;;
84293;SDS011;74463;51.182;3.210;2024-02-26T07:15:01;8.20;;;3.78;;
84293;SDS011;74463;51.182;3.210;2024-02-26T07:17:28;7.45;;;4.10;;
84293;SDS011;74463;51.182;3.210;2024-02-26T07:19:55;5.85;;;3.75;;
84293;SDS011;74463;51.182;3.210;2024-02-26T07:22:22;8.98;;;4.15;;
84293;SDS011;74463;51.182;3.210;2024-02-26T07:24:49;6.25;;;3.50;;
84293;SDS011;74463;51.182;3.210;2024-02-26T07:27:17;5.70;;;3.28;;
84293;SDS011;74463;51.182;3.210;2024-02-26T07:29:46;6.75;;;3.88;;
84293;SDS011;74463;51.182;3.210;2024-02-26T07:32:14;7.72;;;3.83;;
84293;SDS011;74463;51.182;3.210;2024-02-26T07:34:41;5.60;;;3.88;;
84293;SDS011;74463;51.182;3.210;2024-02-26T07:37:09;6.50;;;3.67;;
84293;SDS011;74463;51.182;3.210;2024-02-26T07:39:36;7.18;;;3.35;;
84293;SDS011;74463;51.182;3.210;2024-02-26T07:42:04;5.93;;;3.45;;
84293;SDS011;74463;51.182;3.210;2024-02-26T07:44:31;4.03;;;2.97;;
84293;SDS011;74463;51.182;3.210;2024-02-26T07:46:58;4.55;;;3.30;;
84293;SDS011;74463;51.182;3.210;2024-02-26T07:49:27;6.68;;;3.47;;
84293;SDS011;74463;51.182;3.210;2024-02-26T07:51:54;5.85;;;3.63;;
84293;SDS011;74463;51.182;3.210;2024-02-26T07:54:23;5.88;;;3.65;;
84293;SDS011;74463;51.182;3.210;2024-02-26T07:56:50;4.47;;;3.40;;
84293;SDS011;74463;51.182;3.210;2024-02-26T07:59:16;7.38;;;3.58;;
84293;SDS011;74463;51.182;3.210;2024-02-26T08:01:43;9.15;;;3.60;;
84293;SDS011;74463;51.182;3.210;2024-02-26T08:04:15;6.55;;;3.65;;
84293;SDS011;74463;51.182;3.210;2024-02-26T08:06:43;6.15;;;3.95;;
84293;SDS011;74463;51.182;3.210;2024-02-26T08:09:10;8.50;;;4.35;;
84293;SDS011;74463;51.182;3.210;2024-02-26T08:11:37;8.45;;;4.25;;
84293;SDS011;74463;51.182;3.210;2024-02-26T08:14:04;6.18;;;3.95;;
84293;SDS011;74463;51.182;3.210;2024-02-26T08:16:31;8.70;;;4.38;;
84293;SDS011;74463;51.182;3.210;2024-02-26T08:18:58;7.50;;;4.43;;
84293;SDS011;74463;51.182;3.210;2024-02-26T08:21:25;7.43;;;4.40;;
84293;SDS011;74463;51.182;3.210;2024-02-26T08:23:53;5.80;;;3.65;;
84293;SDS011;74463;51.182;3.210;2024-02-26T08:26:20;9.10;;;4.03;;
84293;SDS011;74463;51.182;3.210;2024-02-26T08:28:49;6.68;;;4.18;;
84293;SDS011;74463;51.182;3.210;2024-02-26T08:31:16;7.75;;;4.95;;
84293;SDS011;74463;51.182;3.210;2024-02-26T08:33:43;6.28;;;4.38;;
84293;SDS011;74463;51.182;3.210;2024-02-26T08:36:11;8.10;;;4.30;;
84293;SDS011;74463;51.182;3.210;2024-02-26T08:38:38;7.93;;;4.47;;
84293;SDS011;74463;51.182;3.210;2024-02-26T08:41:06;9.18;;;4.88;;
84293;SDS011;74463;51.182;3.210;2024-02-26T08:43:33;9.18;;;4.07;;
84293;SDS011;74463;51.182;3.210;2024-02-26T08:46:00;8.15;;;4.65;;
84293;SDS011;74463;51.182;3.210;2024-02-26T08:48:28;7.60;;;5.00;;
84293;SDS011;74463;51.182;3.210;2024-02-26T08:50:55;9.25;;;4.60;;
84293;SDS011;74463;51.182;3.210;2024-02-26T08:53:22;7.72;;;4.75;;
84293;SDS011;74463;51.182;3.210;2024-02-26T08:55:49;9.63;;;5.00;;
84293;SDS011;74463;51.182;3.210;2024-02-26T08:58:17;7.63;;;4.53;;
84293;SDS011;74463;51.182;3.210;2024-02-26T09:00:45;9.93;;;4.80;;
84293;SDS011;74463;51.182;3.210;2024-02-26T09:03:12;10.30;;;5.40;;
84293;SDS011;74463;51.182;3.210;2024-02-26T09:05:39;9.23;;;5.30;;
84293;SDS011;74463;51.182;3.210;2024-02-26T09:08:06;10.10;;;5.00;;
84293;SDS011;74463;51.182;3.210;2024-02-26T09:10:34;9.82;;;4.95;;
84293;SDS011;74463;51.182;3.210;2024-02-26T09:13:00;8.32;;;5.13;;
84293;SDS011;74463;51.182;3.210;2024-02-26T09:15:29;10.50;;;5.25;;
84293;SDS011;74463;51.182;3.210;2024-02-26T09:17:56;9.50;;;5.57;;
84293;SDS011;74463;51.182;3.210;2024-02-26T09:20:23;11.27;;;6.00;;
84293;SDS011;74463;51.182;3.210;2024-02-26T09:22:50;9.73;;;5.72;;
84293;SDS011;74463;51.182;3.210;2024-02-26T09:25:17;9.77;;;5.63;;
84293;SDS011;74463;51.182;3.210;2024-02-26T09:27:44;11.23;;;6.18;;
84293;SDS011;74463;51.182;3.210;2024-02-26T09:30:12;11.15;;;5.57;;
84293;SDS011;74463;51.182;3.210;2024-02-26T09:32:41;11.60;;;6.60;;
84293;SDS011;74463;51.182;3.210;2024-02-26T09:35:12;15.85;;;7.35;;
84293;SDS011;74463;51.182;3.210;2024-02-26T09:37:39;14.63;;;7.50;;
84293;SDS011;74463;51.182;3.210;2024-02-26T09:40:09;13.65;;;7.07;;
84293;SDS011;74463;51.182;3.210;2024-02-26T09:42:37;16.02;;;8.30;;
84293;SDS011;74463;51.182;3.210;2024-02-26T09:45:10;14.80;;;8.25;;
84293;SDS011;74463;51.182;3.210;2024-02-26T09:47:38;14.55;;;8.10;;
84293;SDS011;74463;51.182;3.210;2024-02-26T09:50:09;18.33;;;9.25;;
84293;SDS011;74463;51.182;3.210;2024-02-26T09:52:37;20.83;;;9.95;;
84293;SDS011;74463;51.182;3.210;2024-02-26T09:55:06;18.27;;;10.20;;
84293;SDS011;74463;51.182;3.210;2024-02-26T09:57:34;20.70;;;9.88;;
84293;SDS011;74463;51.182;3.210;2024-02-26T10:00:03;21.55;;;10.70;;
84293;SDS011;74463;51.182;3.210;2024-02-26T10:02:32;15.40;;;9.93;;
84293;SDS011;74463;51.182;3.210;2024-02-26T10:05:03;20.30;;;10.60;;
84293;SDS011;74463;51.182;3.210;2024-02-26T10:07:33;21.65;;;10.73;;
84293;SDS011;74463;51.182;3.210;2024-02-26T10:10:01;14.00;;;8.95;;
84293;SDS011;74463;51.182;3.210;2024-02-26T10:12:29;21.77;;;10.95;;
84293;SDS011;74463;51.182;3.210;2024-02-26T10:14:57;17.52;;;9.80;;
84293;SDS011;74463;51.182;3.210;2024-02-26T10:17:24;13.30;;;9.05;;
84293;SDS011;74463;51.182;3.210;2024-02-26T10:19:52;15.30;;;9.15;;
84293;SDS011;74463;51.182;3.210;2024-02-26T10:22:22;15.27;;;9.48;;
84293;SDS011;74463;51.182;3.210;2024-02-26T10:24:49;15.88;;;8.82;;
84293;SDS011;74463;51.182;3.210;2024-02-26T10:27:16;12.38;;;7.50;;
84293;SDS011;74463;51.182;3.210;2024-02-26T10:29:44;12.33;;;7.73;;
84293;SDS011;74463;51.182;3.210;2024-02-26T10:32:13;15.43;;;9.00;;
84293;SDS011;74463;51.182;3.210;2024-02-26T10:34:40;13.13;;;8.07;;
84293;SDS011;74463;51.182;3.210;2024-02-26T10:37:07;14.82;;;8.85;;
84293;SDS011;74463;51.182;3.210;2024-02-26T10:39:37;12.13;;;8.63;;
84293;SDS011;74463;51.182;3.210;2024-02-26T10:42:04;13.77;;;6.82;;
84293;SDS011;74463;51.182;3.210;2024-02-26T10:44:34;13.93;;;7.10;;
84293;SDS011;74463;51.182;3.210;2024-02-26T10:47:01;12.82;;;7.18;;
84293;SDS011;74463;51.182;3.210;2024-02-26T10:49:29;10.13;;;6.32;;
84293;SDS011;74463;51.182;3.210;2024-02-26T10:51:56;10.80;;;6.88;;
84293;SDS011;74463;51.182;3.210;2024-02-26T10:54:24;10.55;;;6.05;;
84293;SDS011;74463;51.182;3.210;2024-02-26T10:56:55;11.05;;;6.03;;
84293;SDS011;74463;51.182;3.210;2024-02-26T10:59:23;7.95;;;4.95;;
84293;SDS011;74463;51.182;3.210;2024-02-26T11:01:50;9.95;;;5.40;;
84293;SDS011;74463;51.182;3.210;2024-02-26T11:04:18;12.15;;;5.50;;
84293;SDS011;74463;51.182;3.210;2024-02-26T11:06:45;13.10;;;6.13;;
84293;SDS011;74463;51.182;3.210;2024-02-26T11:09:14;7.72;;;5.35;;
84293;SDS011;74463;51.182;3.210;2024-02-26T11:11:42;9.20;;;4.55;;
84293;SDS011;74463;51.182;3.210;2024-02-26T11:14:11;6.60;;;4.45;;
84293;SDS011;74463;51.182;3.210;2024-02-26T11:16:40;8.55;;;5.07;;
84293;SDS011;74463;51.182;3.210;2024-02-26T11:19:08;6.80;;;4.97;;
84293;SDS011;74463;51.182;3.210;2024-02-26T11:21:37;6.88;;;5.05;;
84293;SDS011;74463;51.182;3.210;2024-02-26T11:24:08;9.75;;;5.50;;
84293;SDS011;74463;51.182;3.210;2024-02-26T11:26:39;11.55;;;5.45;;
84293;SDS011;74463;51.182;3.210;2024-02-26T11:29:11;8.48;;;5.13;;
84293;SDS011;74463;51.182;3.210;2024-02-26T11:31:41;9.05;;;5.03;;
84293;SDS011;74463;51.182;3.210;2024-02-26T11:34:08;7.57;;;4.22;;
84293;SDS011;74463;51.182;3.210;2024-02-26T11:36:37;7.90;;;5.43;;
84293;SDS011;74463;51.182;3.210;2024-02-26T11:39:04;9.70;;;4.97;;
84293;SDS011;74463;51.182;3.210;2024-02-26T11:41:32;7.22;;;4.63;;
84293;SDS011;74463;51.182;3.210;2024-02-26T11:44:00;9.02;;;5.05;;
84293;SDS011;74463;51.182;3.210;2024-02-26T11:46:31;8.85;;;4.32;;
84293;SDS011;74463;51.182;3.210;2024-02-26T11:48:59;8.05;;;4.30;;
84293;SDS011;74463;51.182;3.210;2024-02-26T11:51:27;6.82;;;4.22;;
84293;SDS011;74463;51.182;3.210;2024-02-26T11:53:54;8.45;;;3.67;;
84293;SDS011;74463;51.182;3.210;2024-02-26T11:56:24;6.55;;;4.32;;
84293;SDS011;74463;51.182;3.210;2024-02-26T11:58:56;12.18;;;3.53;;
84293;SDS011;74463;51.182;3.210;2024-02-26T12:01:41;8.27;;;4.32;;
84293;SDS011;74463;51.182;3.210;2024-02-26T12:04:13;7.40;;;4.25;;
84293;SDS011;74463;51.182;3.210;2024-02-26T12:06:43;4.40;;;3.53;;
84293;SDS011;74463;51.182;3.210;2024-02-26T12:09:11;6.80;;;4.30;;
84293;SDS011;74463;51.182;3.210;2024-02-26T12:11:39;8.38;;;4.05;;
84293;SDS011;74463;51.182;3.210;2024-02-26T12:16:36;5.53;;;3.80;;
84293;SDS011;74463;51.182;3.210;2024-02-26T12:19:05;7.18;;;4.22;;
84293;SDS011;74463;51.182;3.210;2024-02-26T12:21:34;8.05;;;3.63;;
84293;SDS011;74463;51.182;3.210;2024-02-26T12:24:11;7.57;;;3.40;;
84293;SDS011;74463;51.182;3.210;2024-02-26T12:26:39;6.10;;;4.10;;
84293;SDS011;74463;51.182;3.210;2024-02-26T12:29:06;6.80;;;3.70;;
84293;SDS011;74463;51.182;3.210;2024-02-26T12:31:34;8.73;;;3.78;;
84293;SDS011;74463;51.182;3.210;2024-02-26T12:34:04;6.05;;;3.50;;
84293;SDS011;74463;51.182;3.210;2024-02-26T12:36:34;5.57;;;3.60;;
84293;SDS011;74463;51.182;3.210;2024-02-26T12:39:03;5.13;;;3.13;;
84293;SDS011;74463;51.182;3.210;2024-02-26T12:41:31;5.00;;;3.22;;
84293;SDS011;74463;51.182;3.210;2024-02-26T12:43:58;5.45;;;2.97;;
84293;SDS011;74463;51.182;3.210;2024-02-26T12:46:25;7.50;;;3.45;;
84293;SDS011;74463;51.182;3.210;2024-02-26T12:48:54;5.60;;;3.20;;
84293;SDS011;74463;51.182;3.210;2024-02-26T12:51:24;4.82;;;3.03;;
84293;SDS011;74463;51.182;3.210;2024-02-26T12:53:52;4.88;;;3.17;;
84293;SDS011;74463;51.182;3.210;2024-02-26T12:56:19;7.63;;;3.10;;
84293;SDS011;74463;51.182;3.210;2024-02-26T12:58:48;4.80;;;2.83;;
84293;SDS011;74463;51.182;3.210;2024-02-26T13:01:17;5.18;;;3.20;;
84293;SDS011;74463;51.182;3.210;2024-02-26T13:03:47;3.67;;;2.58;;
84293;SDS011;74463;51.182;3.210;2024-02-26T13:06:15;8.73;;;3.00;;
84293;SDS011;74463;51.182;3.210;2024-02-26T13:08:45;3.10;;;2.40;;
84293;SDS011;74463;51.182;3.210;2024-02-26T13:11:13;9.20;;;3.10;;
84293;SDS011;74463;51.182;3.210;2024-02-26T13:13:40;5.70;;;2.97;;
84293;SDS011;74463;51.182;3.210;2024-02-26T13:16:13;4.47;;;2.72;;
84293;SDS011;74463;51.182;3.210;2024-02-26T13:18:41;4.93;;;2.35;;
84293;SDS011;74463;51.182;3.210;2024-02-26T13:21:09;5.85;;;2.97;;
84293;SDS011;74463;51.182;3.210;2024-02-26T13:23:37;4.18;;;2.85;;
84293;SDS011;74463;51.182;3.210;2024-02-26T14:16:51;7.55;;;3.95;;
84293;SDS011;74463;51.182;3.210;2024-02-26T14:21:46;5.88;;;3.70;;
84293;SDS011;74463;51.182;3.210;2024-02-26T14:24:13;6.95;;;3.47;;
84293;SDS011;74463;51.182;3.210;2024-02-26T14:26:41;8.68;;;4.03;;
84293;SDS011;74463;51.182;3.210;2024-02-26T14:29:08;6.93;;;4.25;;
84293;SDS011;74463;51.182;3.210;2024-02-26T14:31:36;14.05;;;5.75;;
84293;SDS011;74463;51.182;3.210;2024-02-26T14:34:04;7.90;;;4.38;;
84293;SDS011;74463;51.182;3.210;2024-02-26T14:38:59;9.60;;;4.60;;
84293;SDS011;74463;51.182;3.210;2024-02-26T14:41:27;5.30;;;3.35;;
84293;SDS011;74463;51.182;3.210;2024-02-26T14:43:54;5.90;;;3.90;;
84293;SDS011;74463;51.182;3.210;2024-02-26T14:46:22;10.07;;;4.47;;
84293;SDS011;74463;51.182;3.210;2024-02-26T14:48:49;9.75;;;4.45;;
84293;SDS011;74463;51.182;3.210;2024-02-26T14:51:18;10.68;;;4.03;;
84293;SDS011;74463;51.182;3.210;2024-02-26T14:53:46;11.18;;;4.45;;
84293;SDS011;74463;51.182;3.210;2024-02-26T14:56:13;9.38;;;4.90;;
84293;SDS011;74463;51.182;3.210;2024-02-26T14:58:41;9.63;;;5.00;;
84293;SDS011;74463;51.182;3.210;2024-02-26T15:01:08;10.05;;;4.68;;
84293;SDS011;74463;51.182;3.210;2024-02-26T15:03:36;9.17;;;4.40;;
84293;SDS011;74463;51.182;3.210;2024-02-26T15:06:04;8.55;;;4.13;;
84293;SDS011;74463;51.182;3.210;2024-02-26T15:08:33;10.13;;;4.43;;
84293;SDS011;74463;51.182;3.210;2024-02-26T15:11:00;7.60;;;4.60;;
84293;SDS011;74463;51.182;3.210;2024-02-26T15:13:28;12.23;;;5.77;;
84293;SDS011;74463;51.182;3.210;2024-02-26T15:15:56;11.02;;;5.43;;
84293;SDS011;74463;51.182;3.210;2024-02-26T15:18:23;7.88;;;4.47;;
84293;SDS011;74463;51.182;3.210;2024-02-26T15:20:51;9.18;;;4.80;;
84293;SDS011;74463;51.182;3.210;2024-02-26T15:23:18;11.00;;;4.80;;
84293;SDS011;74463;51.182;3.210;2024-02-26T15:25:47;14.63;;;4.40;;
84293;SDS011;74463;51.182;3.210;2024-02-26T15:28:15;13.00;;;4.40;;
84293;SDS011;74463;51.182;3.210;2024-02-26T15:30:42;10.75;;;4.20;;
84293;SDS011;74463;51.182;3.210;2024-02-26T15:33:09;16.25;;;4.22;;
84293;SDS011;74463;51.182;3.210;2024-02-26T15:35:37;8.70;;;4.32;;
84293;SDS011;74463;51.182;3.210;2024-02-26T15:38:04;13.75;;;5.22;;
84293;SDS011;74463;51.182;3.210;2024-02-26T15:40:32;10.93;;;4.70;;
84293;SDS011;74463;51.182;3.210;2024-02-26T15:43:01;10.55;;;4.15;;
84293;SDS011;74463;51.182;3.210;2024-02-26T15:45:28;7.57;;;3.95;;
84293;SDS011;74463;51.182;3.210;2024-02-26T15:47:58;10.07;;;4.05;;
84293;SDS011;74463;51.182;3.210;2024-02-26T15:50:26;12.73;;;5.47;;